Pagina principale
METAR-TAF:

METAR-TAF

Aeroporti :

Aeroporto di Venezia-Tessera

Venezia, Italia

latitudine: 45-30N, longitudine: 012-20E, altezza: 2 m

Osservazione

Il bollettino è stato emesso 15 minuti fa, alle 07:50 UTC
Vento 7 kt da nord-est
Temperature 15°C
Umidità 94%
Pressione 1011 hPa
Visibilità 10 km o più
Poco nuvoloso ad un'altezza di 500 ft
Nuvoloso ad un'altezza di 6200 ft
pioggia debole

METAR: LIPZ 270750Z 04007KT 9999 -RA FEW005 BKN062 15/14 Q1011 RERA NOSIG

Ora: 10:05 (08:05 UTC)

Previsione

Il bollettino è stato emesso 3 ore e 5 minuti fa, alle 05:00 UTC
Previsione valida dal 27 alle 06 UTC al 28 alle 12 UTC
Vento 12 kt da est/nord-est
Visibilità: 8000 m
Nubi sparse ad un'altezza di 1000 ft
Nuvoloso ad un'altezza di 4000 ft
pioggia
Temporaneamente
dal 27 alle 11 UTC al 27 alle 24 UTC
Visibilità: 3000 m
rovesci di pioggia

TAF: LIPZ 270500Z 2706/2812 06012KT 8000 RA SCT010 BKN040 TEMPO 2711/2724 3000 SHRA

Osservazioni e previsioni meteorologiche di più di 4000 aeroporti (messaggi METAR e TAF).

Le stazioni disponibili sono rappresentate dai dischi gialli e rossi sulla carta.

Puntare il mouse per vedere il nome della stazione.

Clicca sopra per visualizzare le osservazioni e previsioni meteorologiche.

Per cambiare la mappa : fare clic sui pulsanti verdi con una croce nera per ingrandire, il pulsante verde con un trattino per diminuire, o sulla freccia verde per le mappe adiacenti.


METAR-TAF: